createdAt,value
2022-10-04T00:01:58.899Z,20.13
2022-10-04T00:04:27.537Z,20.17
2022-10-04T00:06:58.849Z,20.19
2022-10-04T00:09:28.671Z,20.16
2022-10-04T00:11:56.949Z,19.95
2022-10-04T00:14:27.242Z,20.19
2022-10-04T00:16:56.548Z,20.20
2022-10-04T00:19:45.342Z,20.22
2022-10-04T00:22:18.504Z,20.21
2022-10-04T00:25:23.165Z,20.21
2022-10-04T00:28:16.498Z,20.20
2022-10-04T00:30:44.521Z,20.20
2022-10-04T00:33:13.852Z,20.23
2022-10-04T00:35:51.744Z,20.26
2022-10-04T00:38:26.068Z,20.26
2022-10-04T00:40:57.251Z,20.27
2022-10-04T00:43:26.407Z,20.25
2022-10-04T00:45:55.696Z,20.25
2022-10-04T00:48:37.007Z,20.26
2022-10-04T00:51:10.465Z,20.25
2022-10-04T00:53:42.434Z,20.24
2022-10-04T00:56:12.029Z,20.22
2022-10-04T00:58:45.900Z,20.22
2022-10-04T01:01:13.811Z,20.18
2022-10-04T01:03:44.013Z,20.19
2022-10-04T01:06:12.154Z,20.20
2022-10-04T01:08:41.365Z,20.19
2022-10-04T01:11:11.519Z,20.19
2022-10-04T01:13:40.664Z,20.20
2022-10-04T01:16:12.364Z,20.20
2022-10-04T01:18:40.416Z,20.20
2022-10-04T01:21:10.926Z,20.19
2022-10-04T01:23:42.608Z,20.19
2022-10-04T01:26:38.550Z,20.19
2022-10-04T01:29:11.614Z,20.19
2022-10-04T01:31:40.616Z,20.17
2022-10-04T01:34:08.902Z,20.18
2022-10-04T01:36:37.009Z,20.16
2022-10-04T01:39:06.432Z,20.12
2022-10-04T01:41:39.871Z,20.14
2022-10-04T01:44:07.852Z,20.05
2022-10-04T01:46:37.110Z,20.12
2022-10-04T01:49:06.879Z,20.10
2022-10-04T01:51:35.917Z,20.10
2022-10-04T01:54:05.385Z,20.11
2022-10-04T01:56:38.556Z,20.12
2022-10-04T01:59:07.408Z,20.11
2022-10-04T02:01:36.730Z,20.08
2022-10-04T02:04:05.732Z,20.10
2022-10-04T02:06:38.392Z,20.08
2022-10-04T02:09:09.114Z,20.10
2022-10-04T02:11:41.463Z,20.11
2022-10-04T02:14:15.711Z,20.03
2022-10-04T02:16:44.284Z,20.08
2022-10-04T02:19:12.243Z,20.08
2022-10-04T02:21:40.464Z,20.09
2022-10-04T02:24:08.753Z,20.09
2022-10-04T02:26:38.180Z,20.09
2022-10-04T02:29:06.208Z,20.11
2022-10-04T02:31:51.687Z,20.11
2022-10-04T02:34:19.989Z,20.11
2022-10-04T02:36:52.049Z,20.10
2022-10-04T02:39:22.828Z,20.11
2022-10-04T02:41:53.124Z,19.85
2022-10-04T02:44:22.401Z,20.12
2022-10-04T02:46:52.529Z,20.14
2022-10-04T02:49:24.052Z,20.14
2022-10-04T02:51:53.066Z,20.16
2022-10-04T02:54:27.604Z,20.13
2022-10-04T02:56:57.994Z,20.10
2022-10-04T02:59:25.992Z,20.01
2022-10-04T03:01:54.807Z,20.09
2022-10-04T03:04:23.540Z,20.08
2022-10-04T03:06:51.452Z,20.09
2022-10-04T03:09:20.786Z,20.09
2022-10-04T03:11:49.712Z,20.10
2022-10-04T03:14:21.019Z,20.09
2022-10-04T03:16:49.960Z,20.09
2022-10-04T03:19:18.437Z,20.07
2022-10-04T03:21:49.149Z,19.88
2022-10-04T03:24:19.204Z,20.07
2022-10-04T03:26:47.829Z,19.99
2022-10-04T03:29:16.193Z,19.99
2022-10-04T03:31:46.569Z,19.99
2022-10-04T03:34:15.281Z,20.00
2022-10-04T03:36:43.274Z,19.98
2022-10-04T03:39:11.916Z,19.96
2022-10-04T03:41:40.586Z,19.94
2022-10-04T03:44:08.883Z,19.85
2022-10-04T03:46:36.932Z,19.80
2022-10-04T03:49:06.255Z,19.92
2022-10-04T03:51:34.149Z,19.93
2022-10-04T03:54:02.844Z,19.96
2022-10-04T03:56:32.068Z,19.94
2022-10-04T03:58:59.967Z,19.95
2022-10-04T04:01:35.608Z,19.94
2022-10-04T04:04:07.941Z,19.92
2022-10-04T04:06:38.986Z,19.91
2022-10-04T04:09:06.871Z,19.84
2022-10-04T04:11:34.746Z,19.84
2022-10-04T04:14:04.728Z,19.79
2022-10-04T04:16:32.704Z,19.78
2022-10-04T04:19:02.143Z,19.77
2022-10-04T04:21:31.462Z,19.71
2022-10-04T04:24:00.763Z,19.64
2022-10-04T04:26:35.020Z,19.72
2022-10-04T04:29:06.209Z,19.71
2022-10-04T04:31:35.229Z,19.65
2022-10-04T04:34:04.205Z,19.75
2022-10-04T04:36:34.530Z,19.74
2022-10-04T04:39:27.678Z,19.78
2022-10-04T04:41:55.595Z,19.76
2022-10-04T04:44:23.494Z,19.79
2022-10-04T04:46:51.552Z,19.77
2022-10-04T04:49:19.517Z,19.78
2022-10-04T04:51:51.549Z,19.79
2022-10-04T04:54:24.009Z,19.79
2022-10-04T04:56:52.900Z,19.79
2022-10-04T04:59:21.770Z,19.78
2022-10-04T05:01:50.327Z,19.82
2022-10-04T05:04:20.005Z,19.81
2022-10-04T05:06:50.357Z,19.83
2022-10-04T05:09:27.241Z,19.85
2022-10-04T05:11:56.074Z,19.83
2022-10-04T05:14:24.037Z,19.85
2022-10-04T05:16:52.929Z,19.83
2022-10-04T05:19:22.230Z,19.80
2022-10-04T05:21:52.804Z,19.85
2022-10-04T05:24:23.449Z,19.77
2022-10-04T05:26:52.128Z,19.89
2022-10-04T05:29:20.872Z,19.89
2022-10-04T05:31:50.210Z,19.87
2022-10-04T05:34:20.708Z,19.85
2022-10-04T05:36:58.271Z,19.96
2022-10-04T05:39:29.005Z,19.84
2022-10-04T05:42:02.807Z,20.00
2022-10-04T05:44:32.496Z,19.99
2022-10-04T05:47:00.771Z,20.01
2022-10-04T05:49:31.473Z,20.01
2022-10-04T05:52:01.255Z,20.01
2022-10-04T05:54:31.180Z,19.94
2022-10-04T05:57:15.864Z,20.04
2022-10-04T05:59:52.118Z,20.03
2022-10-04T06:02:26.066Z,19.88
2022-10-04T06:05:09.661Z,20.01
2022-10-04T06:07:42.281Z,20.03
2022-10-04T06:10:20.715Z,19.92
2022-10-04T06:12:53.602Z,20.06
2022-10-04T06:15:58.584Z,20.03
2022-10-04T06:18:46.036Z,20.09
2022-10-04T06:21:21.737Z,20.09
2022-10-04T06:23:55.228Z,20.10
2022-10-04T06:26:25.625Z,20.12
2022-10-04T06:28:56.472Z,20.07
2022-10-04T06:32:14.491Z,20.08
2022-10-04T06:35:02.029Z,20.09
2022-10-04T06:37:55.110Z,20.16
2022-10-04T06:41:04.872Z,20.20
2022-10-04T06:43:50.036Z,20.19
2022-10-04T06:46:20.025Z,20.20
2022-10-04T06:49:07.581Z,20.24
2022-10-04T06:51:44.767Z,20.26
2022-10-04T06:54:21.220Z,20.27
2022-10-04T06:57:01.002Z,20.06
2022-10-04T06:59:43.404Z,20.31
2022-10-04T07:02:14.415Z,20.24
2022-10-04T07:07:37.079Z,20.38
2022-10-04T07:10:17.576Z,20.40
2022-10-04T07:12:49.038Z,20.17
2022-10-04T07:15:20.430Z,20.47
2022-10-04T07:17:49.220Z,20.47
2022-10-04T07:20:20.622Z,20.53
2022-10-04T07:22:51.270Z,20.55
2022-10-04T07:25:21.973Z,20.59
2022-10-04T07:28:14.960Z,20.52
2022-10-04T07:30:45.925Z,20.65
2022-10-04T07:33:15.991Z,20.72
2022-10-04T07:35:46.097Z,20.77
2022-10-04T07:38:17.763Z,20.82
2022-10-04T07:41:05.032Z,20.88
2022-10-04T07:43:34.267Z,20.70
2022-10-04T07:46:05.024Z,20.84
2022-10-04T07:48:33.113Z,20.97
2022-10-04T07:51:04.543Z,21.07
2022-10-04T07:53:33.477Z,21.13
2022-10-04T07:56:07.807Z,21.18
2022-10-04T07:58:44.847Z,21.16
2022-10-04T08:01:21.188Z,21.20
2022-10-04T08:04:06.741Z,21.21
2022-10-04T08:06:36.759Z,21.41
2022-10-04T08:09:19.202Z,21.47
2022-10-04T08:11:50.210Z,21.55
2022-10-04T08:14:27.102Z,21.63
2022-10-04T08:17:02.229Z,21.71
2022-10-04T08:19:40.899Z,21.75
2022-10-04T08:22:19.420Z,21.80
2022-10-04T08:24:54.206Z,21.83
2022-10-04T08:27:32.013Z,21.85
2022-10-04T08:30:04.894Z,21.89
2022-10-04T08:32:51.084Z,21.92
2022-10-04T08:35:34.406Z,21.99
2022-10-04T08:38:19.769Z,22.02
2022-10-04T08:41:29.050Z,21.99
2022-10-04T08:44:13.287Z,21.99
2022-10-04T08:47:04.148Z,21.98
2022-10-04T08:49:53.621Z,22.06
2022-10-04T08:52:43.267Z,22.06
2022-10-04T08:55:32.289Z,22.04
2022-10-04T08:58:18.025Z,22.08
2022-10-04T09:00:57.308Z,22.07
2022-10-04T09:03:45.389Z,22.07
2022-10-04T09:06:19.856Z,22.05
2022-10-04T09:09:27.008Z,22.18
2022-10-04T09:12:36.287Z,22.01
2022-10-04T09:15:27.593Z,22.40
2022-10-04T09:17:56.459Z,22.51
2022-10-04T09:20:38.680Z,22.63
2022-10-04T09:23:22.716Z,22.72
2022-10-04T09:25:56.478Z,22.79
2022-10-04T09:28:54.837Z,22.83
2022-10-04T09:31:49.043Z,22.80
2022-10-04T09:34:35.056Z,22.79
2022-10-04T09:37:21.065Z,22.74
2022-10-04T09:40:28.711Z,22.75
2022-10-04T09:43:19.085Z,22.71
2022-10-04T09:46:04.821Z,22.75
2022-10-04T09:48:37.070Z,22.68
2022-10-04T09:51:34.604Z,22.71
2022-10-04T09:54:23.941Z,22.66
2022-10-04T09:57:06.792Z,22.53
2022-10-04T10:00:10.504Z,22.57
2022-10-04T10:02:58.930Z,22.45
2022-10-04T10:05:32.245Z,22.47
2022-10-04T10:08:02.041Z,22.44
2022-10-04T10:10:52.860Z,22.44
2022-10-04T10:13:43.164Z,22.41
2022-10-04T10:16:30.825Z,22.45
2022-10-04T10:19:14.873Z,22.47
2022-10-04T10:21:52.197Z,22.48
2022-10-04T10:24:33.779Z,22.57
2022-10-04T10:27:08.473Z,22.60
2022-10-04T10:29:46.780Z,22.63
2022-10-04T10:32:39.688Z,22.65
2022-10-04T10:35:26.494Z,22.65
2022-10-04T10:38:04.929Z,22.69
2022-10-04T10:40:44.026Z,22.72
2022-10-04T10:43:42.250Z,22.74
2022-10-04T10:46:31.299Z,22.81
2022-10-04T10:49:21.963Z,22.85
2022-10-04T10:52:27.549Z,22.92
2022-10-04T10:55:28.034Z,22.98
2022-10-04T10:58:25.553Z,23.17
2022-10-04T11:00:54.579Z,23.39
2022-10-04T11:03:38.004Z,23.66
2022-10-04T11:06:26.369Z,23.98
2022-10-04T11:09:17.722Z,24.31
2022-10-04T11:11:59.974Z,24.54
2022-10-04T11:14:37.021Z,24.76
2022-10-04T11:17:17.086Z,24.96
2022-10-04T11:20:11.536Z,25.17
2022-10-04T11:23:24.105Z,25.33
2022-10-04T11:26:24.540Z,25.31
2022-10-04T11:28:57.822Z,25.22
2022-10-04T11:31:55.888Z,25.14
2022-10-04T11:34:47.097Z,25.02
2022-10-04T11:37:16.783Z,25.04
2022-10-04T11:39:55.105Z,25.14
2022-10-04T11:42:31.542Z,25.15
2022-10-04T11:45:15.321Z,25.05
2022-10-04T11:47:47.677Z,25.02
2022-10-04T11:50:26.168Z,25.12
2022-10-04T11:53:27.304Z,25.23
2022-10-04T11:56:28.190Z,25.20
2022-10-04T11:59:04.363Z,24.92
2022-10-04T12:02:04.362Z,24.78
2022-10-04T12:05:14.672Z,24.71
2022-10-04T12:07:50.995Z,24.76
2022-10-04T12:10:23.948Z,24.80
2022-10-04T12:13:16.373Z,24.84
2022-10-04T12:16:06.611Z,24.78
2022-10-04T12:18:45.547Z,24.70
2022-10-04T12:21:22.353Z,24.59
2022-10-04T12:24:20.059Z,24.56
2022-10-04T12:27:31.262Z,24.34
2022-10-04T12:30:24.226Z,24.18
2022-10-04T12:33:03.129Z,23.98
2022-10-04T12:35:37.009Z,23.79
2022-10-04T12:38:19.674Z,23.73
2022-10-04T12:40:49.269Z,23.67
2022-10-04T12:43:19.978Z,23.63
2022-10-04T12:45:56.997Z,23.44
2022-10-04T12:48:29.056Z,23.48
2022-10-04T12:51:09.556Z,23.45
2022-10-04T12:53:44.485Z,23.43
2022-10-04T12:56:21.945Z,23.40
2022-10-04T12:58:59.889Z,23.38
2022-10-04T13:01:30.693Z,23.36
2022-10-04T13:04:15.990Z,23.23
2022-10-04T13:06:52.061Z,23.36
2022-10-04T13:09:21.538Z,23.27
2022-10-04T13:11:56.779Z,23.33
2022-10-04T13:14:34.142Z,23.30
2022-10-04T13:17:27.714Z,23.29
2022-10-04T13:19:56.870Z,23.25
2022-10-04T13:22:55.488Z,23.14
2022-10-04T13:25:39.277Z,23.20
2022-10-04T13:28:07.924Z,23.03
2022-10-04T13:30:38.993Z,23.16
2022-10-04T13:33:12.396Z,23.16
2022-10-04T13:35:42.061Z,23.15
2022-10-04T13:38:25.306Z,23.13
2022-10-04T13:41:03.188Z,23.16
2022-10-04T13:43:55.026Z,23.15
2022-10-04T13:46:28.029Z,23.12
2022-10-04T13:49:06.263Z,23.11
2022-10-04T13:51:44.971Z,23.10
2022-10-04T13:54:40.750Z,23.10
2022-10-04T13:57:21.600Z,23.06
2022-10-04T13:59:53.685Z,23.09
2022-10-04T14:02:40.577Z,23.09
2022-10-04T14:05:25.135Z,23.07
2022-10-04T14:08:17.309Z,23.11
2022-10-04T14:11:04.654Z,23.02
2022-10-04T14:13:45.281Z,23.15
2022-10-04T14:16:23.518Z,23.16
2022-10-04T14:19:29.403Z,23.16
2022-10-04T14:22:24.772Z,23.26
2022-10-04T14:25:08.569Z,23.20
2022-10-04T14:27:51.380Z,23.24
2022-10-04T14:30:23.228Z,23.24
2022-10-04T14:33:26.150Z,23.20
2022-10-04T14:36:03.145Z,23.13
2022-10-04T14:38:40.102Z,23.09
2022-10-04T14:41:59.321Z,23.07
2022-10-04T14:45:15.418Z,23.02
2022-10-04T14:48:26.213Z,22.91
2022-10-04T14:51:16.185Z,22.96
2022-10-04T14:53:52.656Z,22.84
2022-10-04T14:56:28.625Z,22.87
2022-10-04T14:59:03.709Z,22.87
2022-10-04T15:01:33.112Z,22.82
2022-10-04T15:04:19.913Z,22.62
2022-10-04T15:06:49.864Z,22.87
2022-10-04T15:09:46.600Z,22.89
2022-10-04T15:13:09.856Z,22.89
2022-10-04T15:15:44.802Z,22.86
2022-10-04T15:18:23.344Z,22.82
2022-10-04T15:20:55.462Z,22.77
2022-10-04T15:23:40.424Z,22.75
2022-10-04T15:26:27.668Z,22.73
2022-10-04T15:29:04.499Z,22.66
2022-10-04T15:31:35.286Z,22.54
2022-10-04T15:34:06.616Z,22.49
2022-10-04T15:37:08.083Z,22.46
2022-10-04T15:39:53.440Z,22.40
2022-10-04T15:42:25.803Z,22.36
2022-10-04T15:45:21.288Z,22.27
2022-10-04T15:48:02.972Z,22.29
2022-10-04T15:50:32.085Z,22.30
2022-10-04T15:53:20.462Z,22.29
2022-10-04T15:56:13.417Z,22.28
2022-10-04T15:58:55.241Z,22.27
2022-10-04T16:01:39.487Z,22.28
2022-10-04T16:04:32.530Z,22.27
2022-10-04T16:07:02.215Z,22.18
2022-10-04T16:09:37.494Z,22.12
2022-10-04T16:12:20.039Z,22.19
2022-10-04T16:15:00.367Z,22.16
2022-10-04T16:17:46.746Z,21.72
2022-10-04T16:20:27.729Z,22.08
2022-10-04T16:23:25.178Z,22.09
2022-10-04T16:25:54.826Z,22.02
2022-10-04T16:28:28.287Z,21.92
2022-10-04T16:31:20.375Z,21.96
2022-10-04T16:33:55.612Z,21.94
2022-10-04T16:36:23.868Z,21.85
2022-10-04T16:39:12.677Z,21.70
2022-10-04T16:41:44.499Z,21.83
2022-10-04T16:44:27.741Z,21.76
2022-10-04T16:46:55.769Z,21.81
2022-10-04T16:49:26.026Z,21.79
2022-10-04T16:52:18.707Z,21.82
2022-10-04T16:54:58.812Z,21.78
2022-10-04T16:57:28.655Z,21.77
2022-10-04T17:00:05.161Z,21.75
2022-10-04T17:02:49.195Z,21.74
2022-10-04T17:05:42.388Z,21.75
2022-10-04T17:08:41.825Z,21.71
2022-10-04T17:11:18.973Z,21.70
2022-10-04T17:13:56.908Z,21.68
2022-10-04T17:16:29.109Z,21.59
2022-10-04T17:19:16.071Z,21.70
2022-10-04T17:21:48.049Z,21.68
2022-10-04T17:24:22.164Z,21.71
2022-10-04T17:26:58.985Z,21.70
2022-10-04T17:29:38.112Z,21.69
2022-10-04T17:32:16.373Z,21.71
2022-10-04T17:34:52.133Z,21.68
2022-10-04T17:37:24.917Z,21.60
2022-10-04T17:39:54.749Z,21.64
2022-10-04T17:42:30.793Z,21.62
2022-10-04T17:45:32.420Z,21.61
2022-10-04T17:48:16.705Z,21.57
2022-10-04T17:51:20.485Z,21.52
2022-10-04T17:54:07.499Z,21.50
2022-10-04T17:56:37.889Z,21.34
2022-10-04T17:59:08.756Z,21.42
2022-10-04T18:01:41.091Z,21.45
2022-10-04T18:04:10.192Z,21.45
2022-10-04T18:06:40.870Z,21.47
2022-10-04T18:09:16.096Z,21.50
2022-10-04T18:11:48.630Z,21.49
2022-10-04T18:14:39.569Z,21.49
2022-10-04T18:17:10.164Z,21.49
2022-10-04T18:19:41.718Z,21.48
2022-10-04T18:22:15.050Z,21.47
2022-10-04T18:24:43.882Z,21.46
2022-10-04T18:27:19.659Z,21.47
2022-10-04T18:30:00.703Z,21.41
2022-10-04T18:32:36.754Z,21.47
2022-10-04T18:35:25.159Z,21.47
2022-10-04T18:37:53.596Z,21.51
2022-10-04T18:40:22.548Z,21.54
2022-10-04T18:42:53.429Z,21.55
2022-10-04T18:45:23.664Z,21.55
2022-10-04T18:47:53.302Z,21.56
2022-10-04T18:50:31.820Z,21.60
2022-10-04T18:53:11.095Z,21.60
2022-10-04T18:55:42.136Z,21.54
2022-10-04T18:58:36.038Z,21.64
2022-10-04T19:01:29.558Z,21.62
2022-10-04T19:04:01.201Z,21.58
2022-10-04T19:06:30.861Z,21.51
2022-10-04T19:09:04.164Z,21.65
2022-10-04T19:11:35.933Z,21.68
2022-10-04T19:14:08.388Z,21.66
2022-10-04T19:16:41.783Z,21.68
2022-10-04T19:19:20.850Z,21.57
2022-10-04T19:21:50.854Z,21.64
2022-10-04T19:24:42.064Z,21.65
2022-10-04T19:27:18.381Z,21.65
2022-10-04T19:29:57.105Z,21.66
2022-10-04T19:32:29.455Z,21.55
2022-10-04T19:35:03.176Z,21.65
2022-10-04T19:37:32.948Z,21.61
2022-10-04T19:40:04.376Z,21.65
2022-10-04T19:42:36.142Z,21.58
2022-10-04T19:45:12.558Z,21.62
2022-10-04T19:47:44.194Z,21.64
2022-10-04T19:50:21.232Z,21.66
2022-10-04T19:52:53.479Z,21.67
2022-10-04T19:55:23.216Z,21.68
2022-10-04T19:57:53.572Z,21.69
2022-10-04T20:00:22.219Z,21.72
2022-10-04T20:02:50.353Z,21.71
2022-10-04T20:05:25.108Z,21.74
2022-10-04T20:07:54.696Z,21.71
2022-10-04T20:10:33.567Z,21.71
2022-10-04T20:13:24.435Z,21.69
2022-10-04T20:16:01.277Z,21.70
2022-10-04T20:19:00.559Z,21.68
2022-10-04T20:21:34.047Z,21.70
2022-10-04T20:24:02.525Z,21.69
2022-10-04T20:27:03.351Z,21.69
2022-10-04T20:30:09.757Z,21.71
2022-10-04T20:32:57.741Z,21.67
2022-10-04T20:36:11.291Z,21.68
2022-10-04T20:38:54.608Z,21.60
2022-10-04T20:42:02.157Z,21.64
2022-10-04T20:44:55.404Z,21.62
2022-10-04T20:47:40.266Z,21.59
2022-10-04T20:50:30.172Z,21.61
2022-10-04T20:53:08.490Z,21.59
2022-10-04T20:55:40.783Z,21.64
2022-10-04T20:58:24.325Z,21.62
2022-10-04T21:00:53.324Z,21.62
2022-10-04T21:03:21.777Z,21.63
2022-10-04T21:06:01.124Z,21.62
2022-10-04T21:08:29.165Z,21.55
2022-10-04T21:11:06.279Z,21.62
2022-10-04T21:13:44.920Z,21.58
2022-10-04T21:16:12.916Z,21.57
2022-10-04T21:18:40.841Z,21.53
2022-10-04T21:21:10.727Z,21.61
2022-10-04T21:23:38.721Z,21.60
2022-10-04T21:26:26.115Z,21.62
2022-10-04T21:28:54.221Z,21.61
2022-10-04T21:31:22.190Z,21.60
2022-10-04T21:33:50.099Z,21.60
2022-10-04T21:36:18.045Z,21.61
2022-10-04T21:38:45.941Z,21.62
2022-10-04T21:41:13.831Z,21.57
2022-10-04T21:43:43.096Z,21.60
2022-10-04T21:46:11.019Z,21.60
2022-10-04T21:48:38.998Z,21.60
2022-10-04T21:51:06.901Z,21.60
2022-10-04T21:53:34.867Z,21.59
2022-10-04T21:56:03.403Z,21.61
2022-10-04T21:58:31.308Z,21.58
2022-10-04T22:01:00.715Z,21.55
2022-10-04T22:03:28.685Z,21.56
2022-10-04T22:05:56.572Z,21.59
2022-10-04T22:08:24.620Z,21.60
2022-10-04T22:10:57.453Z,21.59
2022-10-04T22:13:26.832Z,21.61
2022-10-04T22:15:55.240Z,21.62
2022-10-04T22:18:24.556Z,21.63
2022-10-04T22:20:52.468Z,21.47
2022-10-04T22:23:21.561Z,21.66
2022-10-04T22:25:49.576Z,21.64
2022-10-04T22:28:20.552Z,21.66
2022-10-04T22:30:49.540Z,21.68
2022-10-04T22:33:28.014Z,21.71
2022-10-04T22:35:57.470Z,21.71
2022-10-04T22:38:25.569Z,21.69
2022-10-04T22:40:53.474Z,21.71
2022-10-04T22:43:21.409Z,21.69
2022-10-04T22:45:49.420Z,21.70
2022-10-04T22:48:17.339Z,21.69
2022-10-04T22:50:46.650Z,21.69
2022-10-04T22:53:17.356Z,21.63
2022-10-04T22:55:45.253Z,21.59
2022-10-04T22:58:13.519Z,21.54
2022-10-04T23:00:41.505Z,21.48
2022-10-04T23:03:17.485Z,21.44
2022-10-04T23:05:46.769Z,21.39
2022-10-04T23:08:14.825Z,21.35
2022-10-04T23:10:42.743Z,21.29
2022-10-04T23:13:13.569Z,21.26
2022-10-04T23:15:42.018Z,21.20
2022-10-04T23:18:14.425Z,21.16
2022-10-04T23:20:42.631Z,21.13
2022-10-04T23:23:17.128Z,21.13
2022-10-04T23:25:47.043Z,21.09
2022-10-04T23:28:15.872Z,21.08
2022-10-04T23:30:44.140Z,21.08
2022-10-04T23:33:14.704Z,21.06
2022-10-04T23:35:42.622Z,21.08
2022-10-04T23:38:14.109Z,20.99
2022-10-04T23:40:41.989Z,21.09
2022-10-04T23:43:11.094Z,21.08
2022-10-04T23:45:42.127Z,21.10
2022-10-04T23:48:10.176Z,21.09
2022-10-04T23:50:38.479Z,21.09
2022-10-04T23:53:07.475Z,21.10
2022-10-04T23:55:37.508Z,21.08
2022-10-04T23:58:08.662Z,21.07
